Time;durP1;ratioP1;P1;durP2;ratioP2;P2;SDS_P1;SDS_P2;PMS_P1;PMS_P2;Temp;Humidity;BMP_temperature;BMP_pressure;BME280_temperature;BME280_humidity;BME280_pressure;Samples;Min_cycle;Max_cycle;Signal;HPM_P1;HPM_P2
2021/03/24 00:00:57;;;;;;;7.97;6.50;;;;;;;10.56;62.80;101549.38;4879452;28;101054;-63
2021/03/24 00:03:23;;;;;;;7.80;5.95;;;;;;;10.55;63.24;101558.53;4881599;28;97963;-63
2021/03/24 00:05:50;;;;;;;8.07;6.35;;;;;;;10.54;63.17;101555.00;4868985;28;110331;-60
2021/03/24 00:08:18;;;;;;;7.45;6.03;;;;;;;10.53;63.30;101547.16;4863717;28;98463;-60
2021/03/24 00:10:44;;;;;;;7.55;6.15;;;;;;;10.55;63.50;101542.34;4861388;28;98104;-63
2021/03/24 00:13:11;;;;;;;7.95;6.43;;;;;;;10.53;63.20;101545.28;4844936;28;126841;-63
2021/03/24 00:15:38;;;;;;;7.15;6.03;;;;;;;10.52;63.38;101550.91;4863680;28;98251;-60
2021/03/24 00:18:05;;;;;;;8.13;6.75;;;;;;;10.52;63.35;101546.34;4861190;28;98238;-63
2021/03/24 00:20:35;;;;;;;7.18;6.07;;;;;;;10.51;63.28;101541.19;4869867;28;99361;-63
2021/03/24 00:23:01;;;;;;;7.45;6.30;;;;;;;10.49;63.75;101546.84;4881516;28;97797;-63
2021/03/24 00:25:27;;;;;;;7.72;6.50;;;;;;;10.47;63.04;101546.25;4881127;28;107935;-63
2021/03/24 00:27:53;;;;;;;6.88;5.78;;;;;;;10.49;63.09;101546.00;4881148;28;127288;-63
2021/03/24 00:30:32;;;;;;;7.63;6.53;;;;;;;10.47;62.75;101540.03;4881871;28;98220;-60
2021/03/24 00:32:58;;;;;;;7.35;6.47;;;;;;;10.46;63.20;101538.41;4882415;28;97684;-60
2021/03/24 00:35:24;;;;;;;6.95;5.95;;;;;;;10.45;63.30;101537.59;4873413;28;98224;-60
2021/03/24 00:37:51;;;;;;;7.15;6.30;;;;;;;10.44;64.13;101535.94;4863567;28;98623;-64
2021/03/24 00:40:40;;;;;;;7.25;6.13;;;;;;;10.44;63.45;101535.94;4864853;28;98599;-63
2021/03/24 00:43:06;;;;;;;7.70;6.30;;;;;;;10.44;63.08;101535.94;4866456;28;101265;-60
2021/03/24 00:45:34;;;;;;;8.25;6.60;;;;;;;10.42;64.05;101538.06;4876440;28;112588;-63
2021/03/24 00:48:00;;;;;;;7.43;6.35;;;;;;;10.42;63.57;101538.06;4865588;28;108491;-63
2021/03/24 00:50:27;;;;;;;7.63;6.57;;;;;;;10.41;63.15;101541.81;4864579;28;99310;-64
2021/03/24 00:52:54;;;;;;;7.78;6.47;;;;;;;10.42;63.66;101540.75;4865699;28;97822;-60
2021/03/24 00:55:20;;;;;;;7.82;6.53;;;;;;;10.39;63.42;101546.63;4873215;28;97848;-60
2021/03/24 00:57:46;;;;;;;8.15;7.00;;;;;;;10.42;63.26;101540.75;4882298;28;111212;-60
2021/03/24 01:00:25;;;;;;;8.38;6.55;;;;;;;10.40;63.15;101539.34;4882346;28;99117;-63
2021/03/24 01:02:51;;;;;;;8.30;6.70;;;;;;;10.45;63.64;101544.84;4879306;28;97958;-63
2021/03/24 01:05:21;;;;;;;7.35;6.30;;;;;;;10.39;63.98;101546.63;4883309;28;112401;-63
2021/03/24 01:07:48;;;;;;;8.10;6.32;;;;;;;10.38;63.54;101546.88;4883578;28;98146;-63
2021/03/24 01:10:21;;;;;;;7.22;6.03;;;;;;;10.40;63.55;101542.88;4866313;28;102656;-64
2021/03/24 01:12:47;;;;;;;7.07;6.03;;;;;;;10.37;63.27;101535.25;4884852;28;97921;-63
2021/03/24 01:15:14;;;;;;;8.93;6.28;;;;;;;10.37;63.64;101540.66;4882355;28;105053;-63
2021/03/24 01:17:40;;;;;;;7.68;6.20;;;;;;;10.35;63.70;101533.88;4878710;28;99418;-60
2021/03/24 01:20:07;;;;;;;6.97;6.15;;;;;;;10.36;63.53;101539.00;4877640;28;110822;-63
2021/03/24 01:22:33;;;;;;;7.97;6.47;;;;;;;10.38;63.43;101533.41;4882776;28;98961;-60
2021/03/24 01:24:59;;;;;;;7.30;6.18;;;;;;;10.36;63.74;101530.94;4873820;28;100081;-60
2021/03/24 01:27:28;;;;;;;7.95;6.45;;;;;;;10.33;63.64;101526.00;4865196;28;98438;-63
2021/03/24 01:29:54;;;;;;;7.20;6.22;;;;;;;10.33;63.96;101531.41;4881547;28;128249;-60
2021/03/24 01:32:20;;;;;;;7.95;6.35;;;;;;;10.33;63.33;101531.41;4863428;28;128329;-60
2021/03/24 01:34:46;;;;;;;8.00;6.60;;;;;;;10.29;64.03;101532.94;4864379;28;107944;-60
2021/03/24 01:37:12;;;;;;;8.15;6.68;;;;;;;10.31;63.50;101538.91;4863244;28;121469;-60
2021/03/24 01:39:40;;;;;;;7.30;6.50;;;;;;;10.37;63.96;101532.56;4863927;28;107544;-63
2021/03/24 01:42:08;;;;;;;9.90;6.68;;;;;;;10.30;63.47;101530.03;4862494;28;98045;-60
2021/03/24 01:45:05;;;;;;;8.32;6.43;;;;;;;10.32;63.75;101527.88;4864683;28;97779;-63
2021/03/24 01:47:31;;;;;;;7.65;6.35;;;;;;;10.28;63.74;101529.44;4865020;28;98495;-60
2021/03/24 01:49:57;;;;;;;7.93;6.68;;;;;;;10.31;63.89;101528.97;4848592;28;123451;-63
2021/03/24 01:52:23;;;;;;;8.18;6.57;;;;;;;10.27;63.64;101529.69;4882768;28;115869;-63
2021/03/24 01:54:50;;;;;;;7.65;6.07;;;;;;;10.29;64.02;101530.25;4850433;28;99162;-63
2021/03/24 01:57:23;;;;;;;8.55;7.10;;;;;;;10.27;63.77;101530.50;4880239;28;100480;-60
2021/03/24 01:59:51;;;;;;;7.72;6.22;;;;;;;10.26;63.55;101522.66;4833832;28;98775;-60
2021/03/24 02:02:21;;;;;;;7.07;6.15;;;;;;;10.24;63.53;101528.25;4854985;28;98650;-60
2021/03/24 02:04:49;;;;;;;7.38;6.30;;;;;;;10.24;63.94;101522.03;4881995;28;108330;-60
2021/03/24 02:07:47;;;;;;;7.95;6.60;;;;;;;10.25;63.90;101529.09;4863963;28;113820;-63
2021/03/24 02:10:17;;;;;;;7.88;6.63;;;;;;;10.22;63.92;101524.97;4867258;28;98298;-60
2021/03/24 02:13:01;;;;;;;7.53;6.68;;;;;;;10.22;64.03;101522.28;4880339;28;111456;-60
2021/03/24 02:15:40;;;;;;;7.95;6.80;;;;;;;10.21;63.79;101526.03;4865069;28;98018;-64
2021/03/24 02:18:08;;;;;;;7.90;6.63;;;;;;;10.21;63.56;101519.81;4849121;28;117562;-63
2021/03/24 02:20:40;;;;;;;8.63;6.95;;;;;;;10.21;64.10;101525.19;4849220;28;98384;-60
2021/03/24 02:23:39;;;;;;;7.95;6.45;;;;;;;10.21;63.63;101517.13;4860543;28;98766;-60
2021/03/24 02:26:26;;;;;;;7.97;6.40;;;;;;;10.18;63.69;101525.69;4847525;28;97830;-63
2021/03/24 02:28:52;;;;;;;8.73;6.45;;;;;;;10.17;63.66;101524.03;4860844;28;98460;-64
2021/03/24 02:31:19;;;;;;;7.40;6.60;;;;;;;10.15;63.84;101523.47;4854412;28;125358;-63
2021/03/24 02:33:46;;;;;;;7.95;6.82;;;;;;;10.14;64.39;101517.28;4934389;28;98108;-60
2021/03/24 02:36:18;;;;;;;7.35;6.45;;;;;;;10.13;64.02;101523.69;4864819;28;97913;-60
2021/03/24 02:38:45;;;;;;;8.60;6.70;;;;;;;10.14;64.04;101528.06;4878951;28;98718;-60
2021/03/24 02:41:12;;;;;;;8.02;6.63;;;;;;;10.14;64.18;101519.97;4835997;28;100568;-60
2021/03/24 02:43:38;;;;;;;8.30;7.00;;;;;;;10.14;64.14;101517.28;4845079;28;102986;-60
2021/03/24 02:46:05;;;;;;;8.02;6.80;;;;;;;10.07;64.16;101511.19;4865439;28;108049;-60
2021/03/24 02:48:33;;;;;;;8.70;6.57;;;;;;;10.11;63.79;101515.06;4851588;28;101620;-63
2021/03/24 02:51:00;;;;;;;9.43;6.75;;;;;;;10.08;64.34;101508.25;4854914;28;110088;-63
2021/03/24 02:53:28;;;;;;;10.35;7.25;;;;;;;10.08;64.24;101512.84;4860303;28;97802;-61
2021/03/24 02:55:56;;;;;;;8.85;7.22;;;;;;;10.07;63.85;101511.19;4880052;28;97976;-63
2021/03/24 02:58:22;;;;;;;8.13;7.18;;;;;;;10.05;64.72;101503.34;4848422;28;98913;-63
2021/03/24 03:00:48;;;;;;;9.18;6.85;;;;;;;10.07;64.34;101508.50;4880673;28;128173;-63
2021/03/24 03:03:23;;;;;;;9.38;7.68;;;;;;;10.04;64.26;101500.91;4869556;28;121452;-60
2021/03/24 03:05:49;;;;;;;9.07;7.57;;;;;;;10.05;64.17;101502.53;4844615;28;99270;-60
2021/03/24 03:08:25;;;;;;;9.43;7.63;;;;;;;10.03;64.37;101513.56;4838526;28;123146;-60
2021/03/24 03:11:06;;;;;;;9.13;7.38;;;;;;;10.02;64.40;101513.78;4879493;28;116784;-60
2021/03/24 03:14:13;;;;;;;8.75;7.35;;;;;;;10.02;64.50;101511.06;4848510;28;113579;-63
2021/03/24 03:16:44;;;;;;;9.55;7.78;;;;;;;10.00;64.28;101519.41;4878532;28;106452;-63
2021/03/24 03:19:13;;;;;;;10.23;8.05;;;;;;;10.00;64.29;101516.72;4878938;28;98548;-63
2021/03/24 03:21:50;;;;;;;9.25;7.72;;;;;;;10.01;64.45;101515.66;4879304;28;98432;-60
2021/03/24 03:24:16;;;;;;;9.70;7.82;;;;;;;10.02;64.44;101521.84;4848232;28;98256;-63
2021/03/24 03:26:42;;;;;;;9.80;8.05;;;;;;;10.00;64.73;101510.50;4879364;28;97813;-63
2021/03/24 03:29:18;;;;;;;9.98;8.05;;;;;;;10.00;64.04;101511.31;4878256;28;112577;-60
2021/03/24 03:31:46;;;;;;;10.30;8.13;;;;;;;10.01;63.83;101515.66;4847337;28;98774;-60
2021/03/24 03:34:13;;;;;;;9.88;8.20;;;;;;;10.00;64.61;101511.31;4914242;28;98233;-63
2021/03/24 03:36:42;;;;;;;10.05;8.15;;;;;;;10.00;64.02;101511.31;4845260;28;97833;-60
2021/03/24 03:39:13;;;;;;;9.90;8.35;;;;;;;10.00;64.01;101516.72;4844771;28;116163;-60
2021/03/24 03:41:39;;;;;;;10.10;8.45;;;;;;;10.02;64.14;101514.63;4863165;28;100029;-64
2021/03/24 03:44:05;;;;;;;9.68;8.10;;;;;;;10.01;63.85;101509.44;4859917;28;97807;-63
2021/03/24 03:46:36;;;;;;;10.95;8.38;;;;;;;10.02;63.98;101513.78;4841233;28;98021;-60
2021/03/24 03:49:02;;;;;;;10.70;8.30;;;;;;;10.01;64.02;101507.56;4829631;28;98957;-60
2021/03/24 03:51:35;;;;;;;10.75;8.95;;;;;;;10.00;64.43;101513.22;4873565;28;120098;-63
2021/03/24 03:54:14;;;;;;;11.65;8.77;;;;;;;10.00;64.44;101505.94;4864360;28;98089;-60
2021/03/24 03:56:43;;;;;;;11.70;8.60;;;;;;;9.99;64.12;101504.31;4844583;28;106098;-63
2021/03/24 03:59:40;;;;;;;10.25;8.70;;;;;;;9.99;64.68;101508.88;4859887;28;97927;-60
2021/03/24 04:02:09;;;;;;;11.00;8.63;;;;;;;9.96;64.23;101512.84;4864573;28;113543;-63
2021/03/24 04:04:51;;;;;;;10.98;9.02;;;;;;;9.95;64.43;101508.53;4877477;28;98753;-63
2021/03/24 04:07:38;;;;;;;11.43;8.73;;;;;;;9.95;64.03;101511.22;4859904;28;98018;-64
2021/03/24 04:10:05;;;;;;;10.73;8.70;;;;;;;9.96;63.92;101501.28;4844491;28;101345;-60
2021/03/24 04:12:33;;;;;;;10.70;8.35;;;;;;;9.94;64.50;101498.81;4858820;28;99097;-63
2021/03/24 04:14:59;;;;;;;9.82;8.63;;;;;;;10.00;64.39;101489.78;4851958;28;106056;-63
2021/03/24 04:17:29;;;;;;;10.55;8.55;;;;;;;9.97;63.93;101511.78;4927116;28;98049;-60
2021/03/24 04:19:55;;;;;;;11.68;9.10;;;;;;;9.98;64.42;101504.53;4843415;28;98174;-60
2021/03/24 04:22:29;;;;;;;10.30;9.00;;;;;;;9.97;64.55;101508.28;4827433;28;127880;-63
2021/03/24 04:24:55;;;;;;;11.52;9.00;;;;;;;9.97;64.52;101508.28;4845058;28;98186;-63
2021/03/24 04:27:25;;;;;;;10.38;8.63;;;;;;;9.96;64.28;101506.66;4843196;28;107179;-60
2021/03/24 04:30:04;;;;;;;10.55;9.38;;;;;;;9.94;64.24;101506.91;4846054;28;98593;-63
2021/03/24 04:32:30;;;;;;;11.68;9.05;;;;;;;9.95;64.23;101513.09;4863950;28;98250;-63
2021/03/24 04:34:56;;;;;;;11.15;8.25;;;;;;;9.94;64.14;101514.16;4878121;28;98132;-63
2021/03/24 04:37:46;;;;;;;10.55;8.32;;;;;;;9.94;64.23;101515.00;4879557;28;117873;-63
2021/03/24 04:40:29;;;;;;;10.68;8.77;;;;;;;9.93;64.40;101510.63;4859864;28;99788;-63
2021/03/24 04:43:14;;;;;;;10.82;8.63;;;;;;;9.93;64.50;101512.50;4861342;28;98149;-63
2021/03/24 04:45:58;;;;;;;10.52;8.98;;;;;;;9.90;64.28;101504.91;4854850;28;97851;-60
2021/03/24 04:48:28;;;;;;;13.88;9.80;;;;;;;9.92;64.17;101502.81;4859662;28;97869;-63
2021/03/24 04:51:06;;;;;;;11.32;9.48;;;;;;;9.97;64.86;101505.59;4927302;28;98324;-63
2021/03/24 04:53:42;;;;;;;11.80;9.20;;;;;;;9.96;64.89;101510.16;4862556;28;98404;-63
2021/03/24 04:56:10;;;;;;;12.35;9.75;;;;;;;9.94;64.07;101515.00;4835037;28;115947;-63
2021/03/24 04:58:40;;;;;;;11.55;9.55;;;;;;;9.95;64.25;101515.81;4852155;28;98158;-60
2021/03/24 05:01:20;;;;;;;12.48;9.60;;;;;;;9.92;64.50;101527.03;4858733;28;98228;-63
2021/03/24 05:03:46;;;;;;;12.48;10.00;;;;;;;9.93;64.81;101532.19;4860268;28;98517;-63
2021/03/24 05:06:27;;;;;;;13.18;9.77;;;;;;;9.93;64.51;101531.38;4844556;28;127337;-60
2021/03/24 05:08:53;;;;;;;12.13;9.52;;;;;;;9.93;64.52;101526.78;4849987;28;97954;-63
2021/03/24 05:11:34;;;;;;;12.43;9.45;;;;;;;9.96;64.39;101523.63;4874526;28;109430;-63
2021/03/24 05:14:43;;;;;;;13.20;10.27;;;;;;;9.93;65.03;101532.19;4859129;28;100096;-63
2021/03/24 05:17:16;;;;;;;13.57;10.15;;;;;;;9.98;64.62;101542.25;4877127;28;97905;-63
2021/03/24 05:19:43;;;;;;;13.35;10.40;;;;;;;9.95;64.91;101530.09;4881413;28;98134;-63
2021/03/24 05:22:30;;;;;;;15.00;10.60;;;;;;;9.96;65.05;101533.59;4880764;28;98528;-63
2021/03/24 05:25:03;;;;;;;13.35;10.18;;;;;;;10.01;64.27;101528.31;4865908;28;98511;-60
2021/03/24 05:27:42;;;;;;;12.90;10.07;;;;;;;9.99;64.11;101523.16;4880249;28;110236;-60
2021/03/24 05:30:31;;;;;;;13.75;10.65;;;;;;;10.02;64.45;101520.00;4869510;28;97835;-60
2021/03/24 05:33:34;;;;;;;14.65;10.48;;;;;;;10.00;64.86;101518.59;4865210;28;98539;-60
2021/03/24 05:36:35;;;;;;;11.07;8.23;;;;;;;10.01;64.59;101521.03;4870299;28;98642;-63
2021/03/24 05:39:34;;;;;;;15.18;11.23;;;;;;;10.02;64.70;101525.41;4873575;28;98560;-63
2021/03/24 05:42:52;;;;;;;13.65;10.70;;;;;;;10.05;64.62;101530.28;4880354;28;108623;-63
2021/03/24 05:45:42;;;;;;;14.35;10.95;;;;;;;10.08;64.01;101540.59;4859125;28;98324;-63
2021/03/24 05:48:37;;;;;;;13.40;10.68;;;;;;;10.11;63.72;101535.78;4929682;28;98347;-63
2021/03/24 05:51:30;;;;;;;15.43;11.55;;;;;;;10.12;64.15;101540.94;4857974;28;97970;-60
2021/03/24 05:54:11;;;;;;;14.13;10.93;;;;;;;10.18;64.41;101525.69;4843576;28;97929;-63
2021/03/24 05:56:54;;;;;;;13.98;11.15;;;;;;;10.27;63.98;101527.00;4843453;28;99225;-60
2021/03/24 05:59:28;;;;;;;15.27;11.15;;;;;;;10.31;63.57;101534.34;4860462;28;98318;-63
2021/03/24 06:01:56;;;;;;;14.20;10.70;;;;;;;10.38;63.38;101528.00;4858887;28;114569;-63
2021/03/24 06:04:31;;;;;;;14.55;11.57;;;;;;;10.45;63.44;101525.97;4842576;28;98179;-62
2021/03/24 06:08:07;;;;;;;14.18;11.23;;;;;;;10.53;63.30;101523.72;4932834;28;118498;-63
2021/03/24 06:10:58;;;;;;;14.60;11.15;;;;;;;10.57;63.22;101529.44;4818838;28;98306;-63
2021/03/24 06:13:58;;;;;;;16.20;11.38;;;;;;;10.66;62.90;101519.09;4805034;28;97858;-60
2021/03/24 06:17:00;;;;;;;14.15;11.30;;;;;;;10.70;63.18;101518.38;4849547;28;98133;-61
2021/03/24 06:19:46;;;;;;;15.93;11.90;;;;;;;10.74;63.27;101513.31;4857612;28;98536;-63
2021/03/24 06:22:36;;;;;;;15.07;11.38;;;;;;;10.78;63.16;101519.84;4857962;28;99003;-64
2021/03/24 06:25:22;;;;;;;14.25;10.80;;;;;;;10.90;62.34;101517.91;4860538;28;98058;-60
2021/03/24 06:28:29;;;;;;;15.13;11.48;;;;;;;10.94;62.69;101512.84;4861098;28;97841;-60
2021/03/24 06:31:04;;;;;;;16.13;12.23;;;;;;;11.02;62.56;101512.44;4867436;28;98470;-63
2021/03/24 06:33:47;;;;;;;15.88;12.15;;;;;;;11.14;62.39;101507.75;4858286;28;99246;-60
2021/03/24 06:36:48;;;;;;;16.73;12.57;;;;;;;11.25;62.39;101514.16;4858124;28;97933;-63
2021/03/24 06:39:53;;;;;;;16.98;12.25;;;;;;;11.36;61.65;101517.78;4880887;27;105557;-63
2021/03/24 06:42:50;;;;;;;15.82;12.05;;;;;;;11.43;61.78;101518.44;4858098;28;98981;-63
2021/03/24 06:45:37;;;;;;;16.42;12.70;;;;;;;11.43;61.65;101510.34;4857824;28;98261;-64
2021/03/24 06:48:22;;;;;;;17.80;13.23;;;;;;;11.48;61.61;101515.84;4857972;28;119099;-60
2021/03/24 06:51:52;;;;;;;17.48;13.50;;;;;;;11.53;62.40;101521.31;4859279;28;97964;-60
2021/03/24 06:54:49;;;;;;;18.15;13.85;;;;;;;11.56;62.55;101523.53;4880766;28;98633;-60
2021/03/24 06:57:55;;;;;;;18.25;13.40;;;;;;;11.62;62.24;101524.41;4857295;28;99139;-60
2021/03/24 07:00:41;;;;;;;17.92;13.18;;;;;;;11.70;61.76;101534.78;4857484;28;98144;-64
2021/03/24 07:03:57;;;;;;;18.67;14.13;;;;;;;11.69;62.64;101531.25;4857444;28;98120;-60
2021/03/24 07:06:34;;;;;;;21.67;14.95;;;;;;;11.78;61.80;101537.84;4861694;28;98528;-60
2021/03/24 07:09:49;;;;;;;18.52;13.85;;;;;;;11.91;61.88;101525.13;4857755;28;98943;-60
2021/03/24 07:12:56;;;;;;;18.65;14.07;;;;;;;11.99;61.87;101527.38;4842415;28;98517;-60
2021/03/24 07:15:40;;;;;;;19.33;14.63;;;;;;;12.04;61.60;101522.84;4925091;28;98001;-63
2021/03/24 07:18:49;;;;;;;19.38;14.50;;;;;;;12.12;61.28;101531.59;4857980;28;99712;-60
2021/03/24 07:21:43;;;;;;;20.00;15.20;;;;;;;12.18;61.69;101527.84;4845850;28;98582;-64
2021/03/24 07:24:23;;;;;;;19.65;15.25;;;;;;;12.22;61.55;101524.41;4864043;28;97946;-60
2021/03/24 07:27:12;;;;;;;19.77;15.43;;;;;;;12.23;61.67;101525.22;4828046;28;98263;-63
2021/03/24 07:29:51;;;;;;;22.48;15.98;;;;;;;12.28;61.70;101536.91;4854090;28;98623;-63
2021/03/24 07:32:35;;;;;;;20.70;15.45;;;;;;;12.27;61.71;101534.47;4857564;28;98581;-60
2021/03/24 07:35:19;;;;;;;22.17;16.30;;;;;;;12.37;61.81;101541.88;4857073;28;98243;-63
2021/03/24 07:38:13;;;;;;;20.50;15.60;;;;;;;12.44;61.44;101540.59;4859841;28;97838;-63
2021/03/24 07:41:06;;;;;;;21.27;16.00;;;;;;;12.49;61.58;101543.34;4858493;28;99016;-63
2021/03/24 07:43:49;;;;;;;21.85;16.80;;;;;;;12.52;61.39;101548.25;4857697;28;98066;-63
2021/03/24 07:46:40;;;;;;;21.33;16.85;;;;;;;12.62;61.35;101557.56;4897096;28;98437;-64
2021/03/24 07:49:36;;;;;;;21.17;16.25;;;;;;;12.67;61.48;101557.63;4858960;28;98183;-60
2021/03/24 07:52:21;;;;;;;20.75;16.67;;;;;;;12.71;61.18;101554.13;4866007;28;98490;-63
2021/03/24 07:55:11;;;;;;;22.20;17.00;;;;;;;12.75;61.28;101571.50;4861196;28;99139;-61
2021/03/24 07:57:47;;;;;;;21.58;17.10;;;;;;;12.80;61.41;101573.44;4858526;28;98166;-60
2021/03/24 08:00:51;;;;;;;22.27;17.33;;;;;;;12.86;61.14;101571.59;4856398;28;111218;-63
2021/03/24 08:03:51;;;;;;;23.02;17.67;;;;;;;12.90;61.32;101572.72;4844374;28;98534;-60
2021/03/24 08:06:53;;;;;;;22.85;17.55;;;;;;;13.00;60.88;101572.81;4857974;28;98740;-61
2021/03/24 08:10:06;;;;;;;21.90;17.08;;;;;;;13.07;61.17;101578.84;4857074;28;100297;-60
2021/03/24 08:13:03;;;;;;;21.08;17.00;;;;;;;13.17;60.69;101570.00;4857425;28;97957;-60
2021/03/24 08:15:55;;;;;;;20.90;16.73;;;;;;;13.18;60.97;101575.16;4858146;28;98945;-64
2021/03/24 08:18:57;;;;;;;21.67;16.98;;;;;;;13.31;60.87;101567.69;4841741;28;98234;-64
2021/03/24 08:21:26;;;;;;;22.47;18.03;;;;;;;13.50;60.41;101567.03;4861608;28;98207;-64
2021/03/24 08:24:31;;;;;;;21.83;17.52;;;;;;;13.61;60.18;101570.63;4860566;28;98316;-64
2021/03/24 08:27:00;;;;;;;24.70;17.88;;;;;;;13.63;60.42;101570.34;4860072;28;98417;-63
2021/03/24 08:29:39;;;;;;;22.27;17.63;;;;;;;13.73;59.98;101570.44;4840940;28;98167;-64
2021/03/24 08:32:46;;;;;;;23.58;18.27;;;;;;;13.83;59.98;101565.06;4912265;28;110636;-64
2021/03/24 08:35:20;;;;;;;23.40;18.48;;;;;;;13.93;59.77;101570.53;4858802;28;98346;-64
2021/03/24 08:38:05;;;;;;;23.75;18.33;;;;;;;14.13;59.70;101560.88;4858400;28;98502;-64
2021/03/24 08:41:11;;;;;;;21.45;17.67;;;;;;;14.23;59.43;101564.47;4858168;28;98483;-61
2021/03/24 08:44:02;;;;;;;21.65;18.42;;;;;;;14.27;59.90;101562.03;4856860;28;98117;-64
2021/03/24 08:46:39;;;;;;;23.40;18.05;;;;;;;14.13;59.86;101567.13;4856681;28;98002;-64
2021/03/24 08:49:17;;;;;;;23.13;18.35;;;;;;;14.15;60.08;101566.88;4825155;28;110661;-64
2021/03/24 08:51:55;;;;;;;22.73;20.10;;;;;;;14.28;59.89;101566.38;4860581;28;98466;-61
2021/03/24 08:55:06;;;;;;;24.60;19.35;;;;;;;14.52;59.02;101569.47;4861724;28;97854;-60
2021/03/24 08:57:32;;;;;;;23.50;18.73;;;;;;;14.50;59.37;101555.34;4860949;28;98309;-64
2021/03/24 09:00:47;;;;;;;22.92;18.80;;;;;;;14.57;59.45;101566.75;4860114;28;98547;-63
2021/03/24 09:03:32;;;;;;;24.63;20.05;;;;;;;14.55;59.69;101562.69;4861424;28;98243;-61
2021/03/24 09:06:16;;;;;;;22.75;18.70;;;;;;;14.51;59.63;101557.00;4861345;28;97721;-64
2021/03/24 09:08:51;;;;;;;25.83;19.90;;;;;;;14.54;59.88;101561.88;4863814;28;97959;-61
2021/03/24 09:11:35;;;;;;;24.45;19.98;;;;;;;14.71;59.72;101554.31;4859364;28;98605;-64
2021/03/24 09:14:33;;;;;;;23.02;19.38;;;;;;;15.03;58.54;101549.75;4858149;28;109826;-60
2021/03/24 09:17:05;;;;;;;23.50;19.45;;;;;;;15.18;58.51;101550.56;4844538;28;97964;-60
2021/03/24 09:20:18;;;;;;;24.23;20.15;;;;;;;15.16;58.54;101546.47;4862352;28;98114;-60
2021/03/24 09:23:31;;;;;;;24.10;19.75;;;;;;;15.26;58.49;101545.66;4858764;28;98902;-61
2021/03/24 09:26:45;;;;;;;24.10;19.50;;;;;;;15.44;57.85;101537.78;4828713;28;98675;-60
2021/03/24 09:29:20;;;;;;;23.17;19.73;;;;;;;15.72;57.61;101546.47;4910668;28;98612;-60
2021/03/24 09:32:16;;;;;;;25.83;20.05;;;;;;;16.15;57.17;101535.94;4865350;28;98030;-60
2021/03/24 09:35:12;;;;;;;24.17;19.55;;;;;;;16.35;56.59;101540.50;4859364;28;98031;-61
2021/03/24 09:38:07;;;;;;;23.05;18.75;;;;;;;16.84;55.66;101535.03;4858524;28;98302;-61
2021/03/24 09:40:43;;;;;;;23.38;19.48;;;;;;;17.43;54.56;101531.25;4857897;28;114606;-60
2021/03/24 09:43:25;;;;;;;22.08;18.27;;;;;;;18.37;53.02;101528.00;4844386;28;98203;-64
2021/03/24 09:46:37;;;;;;;19.55;17.42;;;;;;;19.20;51.52;101517.47;4864946;28;111032;-64
2021/03/24 09:49:23;;;;;;;20.58;17.75;;;;;;;19.90;50.43;101515.66;4862980;28;98313;-65
2021/03/24 09:52:30;;;;;;;18.35;16.45;;;;;;;20.65;49.84;101515.09;4929969;28;100477;-61
2021/03/24 09:55:31;;;;;;;17.77;15.85;;;;;;;21.01;49.50;101506.00;4862047;28;98051;-65
2021/03/24 09:58:58;;;;;;;18.10;16.20;;;;;;;21.19;49.70;101506.94;4860986;28;98717;-65
2021/03/24 10:01:49;;;;;;;17.50;15.70;;;;;;;21.04;49.98;101508.94;4845478;28;98176;-61
2021/03/24 10:04:48;;;;;;;17.35;15.45;;;;;;;21.11;49.78;101513.19;4865553;28;98257;-65
2021/03/24 10:07:25;;;;;;;16.08;14.48;;;;;;;21.11;49.95;101514.00;4868291;28;98191;-61
2021/03/24 10:10:14;;;;;;;16.50;14.70;;;;;;;21.07;49.85;101508.31;4857823;28;98797;-65
2021/03/24 10:13:29;;;;;;;17.67;15.85;;;;;;;21.12;50.31;101507.38;4858906;28;99163;-61
2021/03/24 10:16:28;;;;;;;17.75;15.82;;;;;;;21.30;49.49;101511.03;4856957;28;98747;-65
2021/03/24 10:19:04;;;;;;;18.02;16.20;;;;;;;20.97;50.00;101502.28;4874692;27;97972;-61
2021/03/24 10:21:55;;;;;;;17.10;15.40;;;;;;;21.46;49.18;101501.31;4858354;28;98734;-65
2021/03/24 10:25:05;;;;;;;17.05;15.25;;;;;;;21.15;49.89;101501.28;4850332;28;99119;-61
2021/03/24 10:27:31;;;;;;;16.83;15.13;;;;;;;20.72;50.86;101498.25;4854110;28;99039;-61
2021/03/24 10:30:12;;;;;;;18.48;16.30;;;;;;;20.38;51.54;101501.47;4861250;28;103378;-64
2021/03/24 10:33:16;;;;;;;19.23;17.23;;;;;;;20.09;51.60;101500.72;4858139;28;98588;-61
2021/03/24 10:35:55;;;;;;;19.38;17.30;;;;;;;20.34;50.63;101499.34;4863115;28;108727;-65
2021/03/24 10:38:49;;;;;;;18.00;16.20;;;;;;;21.25;48.64;101492.78;4831642;28;98188;-64
2021/03/24 10:41:28;;;;;;;17.75;15.90;;;;;;;21.88;47.37;101487.22;4861505;27;98183;-60
2021/03/24 10:44:25;;;;;;;17.95;16.13;;;;;;;21.86;48.07;101493.06;4858377;28;99415;-61
2021/03/24 10:47:13;;;;;;;16.33;14.65;;;;;;;24.01;43.64;101486.72;4857545;28;98504;-65
2021/03/24 10:50:22;;;;;;;15.57;13.82;;;;;;;24.20;43.58;101489.03;4858296;28;98161;-65
2021/03/24 10:53:13;;;;;;;14.57;13.18;;;;;;;24.05;44.41;101489.63;4844600;28;97833;-61
2021/03/24 10:55:42;;;;;;;13.50;12.20;;;;;;;23.78;44.34;101480.75;4857258;28;98067;-61
2021/03/24 10:58:53;;;;;;;14.52;13.13;;;;;;;23.59;45.35;101478.38;4842489;28;98733;-65
2021/03/24 11:02:06;;;;;;;14.32;12.93;;;;;;;23.00;46.31;101481.81;4860403;28;98007;-61
2021/03/24 11:04:49;;;;;;;14.88;13.40;;;;;;;22.40;47.11;101468.09;4858068;28;97950;-64
2021/03/24 11:07:51;;;;;;;15.18;13.77;;;;;;;22.42;47.25;101468.59;4856306;28;98257;-61
2021/03/24 11:10:39;;;;;;;15.95;14.35;;;;;;;21.95;48.15;101458.19;4847350;28;98429;-65
2021/03/24 11:13:27;;;;;;;16.75;15.07;;;;;;;21.70;48.48;101458.97;4860038;28;97904;-65
2021/03/24 11:16:04;;;;;;;17.05;15.25;;;;;;;22.64;46.32;101456.66;4857148;28;98218;-66
2021/03/24 11:18:49;;;;;;;15.88;14.38;;;;;;;23.24;45.06;101447.47;4857652;28;98493;-61
2021/03/24 11:21:28;;;;;;;14.48;13.15;;;;;;;22.95;45.40;101454.53;4841433;28;106374;-65
2021/03/24 11:24:07;;;;;;;14.40;13.00;;;;;;;23.09;45.99;101454.31;4856588;28;98408;-65
2021/03/24 11:27:13;;;;;;;14.77;13.27;;;;;;;22.25;47.73;101461.19;4858826;28;98478;-61
2021/03/24 11:29:58;;;;;;;15.60;14.00;;;;;;;21.67;48.52;101457.66;4844304;28;98569;-61
2021/03/24 11:32:52;;;;;;;15.45;13.85;;;;;;;23.61;44.81;101440.31;4917802;28;99347;-65
2021/03/24 11:35:19;;;;;;;13.63;12.32;;;;;;;23.34;45.37;101438.84;4879020;28;98755;-61
2021/03/24 11:38:29;;;;;;;13.88;12.57;;;;;;;22.43;46.65;101446.28;4863795;28;98133;-61
2021/03/24 11:41:01;;;;;;;12.90;11.60;;;;;;;23.72;44.71;101435.28;4858685;28;98965;-61
2021/03/24 11:43:30;;;;;;;11.88;10.73;;;;;;;24.36;43.39;101437.72;4858608;28;116905;-61
2021/03/24 11:46:13;;;;;;;11.82;10.68;;;;;;;23.34;45.18;101429.78;4841209;28;98208;-61
2021/03/24 11:48:57;;;;;;;12.57;11.43;;;;;;;24.29;43.89;101433.88;4857791;28;106500;-65
2021/03/24 11:52:08;;;;;;;11.13;10.02;;;;;;;25.13;42.37;101420.78;4857503;28;98418;-61
2021/03/24 11:54:37;;;;;;;10.80;9.70;;;;;;;24.30;43.97;101425.31;4904398;28;98850;-65
2021/03/24 11:57:22;;;;;;;10.52;9.50;;;;;;;25.78;41.61;101412.59;4917752;28;99903;-65
2021/03/24 12:00:09;;;;;;;10.60;9.57;;;;;;;26.56;40.43;101406.59;4858869;28;97812;-61
2021/03/24 12:02:49;;;;;;;9.73;8.77;;;;;;;25.97;40.84;101410.03;4859011;28;104149;-65
2021/03/24 12:05:36;;;;;;;9.38;8.57;;;;;;;26.00;41.15;101401.06;4861031;28;98559;-61
2021/03/24 12:08:54;;;;;;;10.35;9.40;;;;;;;26.73;39.96;101396.41;4911996;28;97973;-61
2021/03/24 12:11:31;;;;;;;9.18;8.38;;;;;;;27.14;39.22;101390.34;4858267;28;98188;-65
2021/03/24 12:14:21;;;;;;;8.52;7.72;;;;;;;27.29;38.63;101385.19;4858536;28;98749;-62
2021/03/24 12:16:51;;;;;;;8.90;8.10;;;;;;;27.66;38.46;101382.84;4867038;28;99197;-65
2021/03/24 12:19:37;;;;;;;8.68;7.88;;;;;;;28.18;36.88;101364.16;4856760;28;98271;-61
2021/03/24 12:22:23;;;;;;;8.68;7.90;;;;;;;28.30;37.25;101367.63;4842704;28;98052;-61